Time;durP1;ratioP1;P1;durP2;ratioP2;P2;SDS_P1;SDS_P2;PMS_P1;PMS_P2;Temp;Humidity;BMP_temperature;BMP_pressure;BME280_temperature;BME280_humidity;BME280_pressure;Samples;Min_cycle;Max_cycle;Signal;HPM_P1;HPM_P2
2021/12/20 00:01:12;;;;;;;24.48;11.10;;;3.20;86.10;;;;;;5055488;28;20037;-66
2021/12/20 00:03:37;;;;;;;25.67;12.35;;;3.20;86.10;;;;;;5058715;28;20435;-66
2021/12/20 00:06:03;;;;;;;27.85;13.68;;;3.30;86.00;;;;;;5058780;28;20124;-64
2021/12/20 00:08:29;;;;;;;26.17;13.20;;;3.20;86.00;;;;;;5057514;28;20086;-66
2021/12/20 00:10:55;;;;;;;26.27;12.38;;;3.30;86.00;;;;;;5054059;28;20135;-66
2021/12/20 00:13:22;;;;;;;24.95;12.90;;;3.30;86.00;;;;;;5057761;28;20053;-66
2021/12/20 00:15:48;;;;;;;24.20;11.82;;;3.30;85.80;;;;;;5053872;28;20407;-66
2021/12/20 00:18:14;;;;;;;27.70;13.05;;;3.30;85.80;;;;;;5053379;28;20040;-67
2021/12/20 00:20:39;;;;;;;25.83;12.77;;;3.40;85.80;;;;;;5051207;28;20040;-66
2021/12/20 00:23:05;;;;;;;26.48;13.20;;;3.40;85.80;;;;;;5053563;28;20029;-66
2021/12/20 00:25:31;;;;;;;26.58;13.20;;;3.40;85.80;;;;;;5050904;28;20659;-67
2021/12/20 00:27:57;;;;;;;23.17;11.98;;;3.40;85.80;;;;;;5056012;28;20036;-66
2021/12/20 00:30:23;;;;;;;24.60;12.25;;;3.40;85.80;;;;;;5052029;28;20040;-67
2021/12/20 00:32:48;;;;;;;25.25;12.38;;;3.40;85.80;;;;;;5053348;28;20123;-65
2021/12/20 00:35:17;;;;;;;27.40;12.20;;;3.50;85.80;;;;;;5052673;28;21369;-67
2021/12/20 00:40:27;;;;;;;26.75;12.23;;;3.40;85.60;;;;;;5054307;28;20040;-66
2021/12/20 00:42:59;;;;;;;26.45;12.02;;;3.40;85.60;;;;;;5056960;28;20029;-66
2021/12/20 00:45:27;;;;;;;25.23;11.88;;;3.40;85.60;;;;;;5052364;28;20068;-66
2021/12/20 00:47:53;;;;;;;25.77;11.65;;;3.40;85.70;;;;;;5054934;28;20043;-66
2021/12/20 00:50:20;;;;;;;27.50;12.55;;;3.40;85.80;;;;;;5056339;28;20041;-66
2021/12/20 00:52:47;;;;;;;24.63;11.90;;;3.40;85.70;;;;;;5053665;28;20041;-66
2021/12/20 00:55:16;;;;;;;25.45;11.88;;;3.40;85.60;;;;;;5051965;28;20076;-66
2021/12/20 00:57:43;;;;;;;24.00;11.68;;;3.50;85.60;;;;;;5055381;28;20037;-66
2021/12/20 01:00:10;;;;;;;27.73;12.70;;;3.50;85.60;;;;;;5052308;28;20028;-66
2021/12/20 01:02:35;;;;;;;25.13;11.88;;;3.50;85.60;;;;;;5051061;28;20610;-66
2021/12/20 01:05:01;;;;;;;27.92;12.60;;;3.50;85.60;;;;;;5050939;28;20062;-66
2021/12/20 01:07:28;;;;;;;26.50;13.00;;;3.50;85.60;;;;;;5055208;28;20025;-67
2021/12/20 01:09:57;;;;;;;29.42;13.70;;;3.50;85.60;;;;;;5055741;28;20063;-66
2021/12/20 01:12:26;;;;;;;27.35;12.98;;;3.50;85.50;;;;;;5053014;28;20090;-66
2021/12/20 01:14:58;;;;;;;28.58;13.20;;;3.50;85.50;;;;;;5051525;28;20594;-66
2021/12/20 01:17:24;;;;;;;26.00;12.18;;;3.50;85.40;;;;;;5050247;28;20748;-66
2021/12/20 01:19:50;;;;;;;30.20;13.75;;;3.50;85.30;;;;;;5051281;28;20159;-66
2021/12/20 01:22:16;;;;;;;29.25;13.18;;;3.50;85.30;;;;;;5054182;28;20054;-67
2021/12/20 01:24:41;;;;;;;25.90;12.43;;;3.50;85.40;;;;;;5053395;28;20484;-66
2021/12/20 01:27:07;;;;;;;26.27;12.52;;;3.40;85.50;;;;;;5054533;28;20029;-65
2021/12/20 01:29:32;;;;;;;26.85;12.25;;;3.40;85.50;;;;;;5057169;28;20171;-66
2021/12/20 01:31:58;;;;;;;26.23;12.88;;;3.40;85.60;;;;;;5059544;28;20032;-65
2021/12/20 01:34:23;;;;;;;28.48;12.52;;;3.40;85.70;;;;;;5055722;28;20151;-66
2021/12/20 01:36:49;;;;;;;28.88;13.30;;;3.40;85.70;;;;;;5055649;28;20119;-66
2021/12/20 01:39:15;;;;;;;27.17;13.02;;;3.40;85.70;;;;;;5059489;28;20443;-66
2021/12/20 01:41:43;;;;;;;27.05;13.13;;;3.40;85.70;;;;;;5056965;28;20043;-66
2021/12/20 01:44:10;;;;;;;29.83;12.40;;;3.40;85.60;;;;;;5053786;28;20443;-66
2021/12/20 01:46:36;;;;;;;27.48;12.80;;;3.40;85.60;;;;;;5055977;28;20048;-65
2021/12/20 01:49:06;;;;;;;31.40;13.32;;;3.40;85.70;;;;;;5058987;28;20033;-66
2021/12/20 01:51:46;;;;;;;28.10;13.30;;;3.40;85.70;;;;;;5060317;28;20046;-66
2021/12/20 01:54:12;;;;;;;25.77;12.77;;;3.40;85.70;;;;;;5057487;28;20089;-66
2021/12/20 01:56:41;;;;;;;26.98;12.70;;;3.40;85.70;;;;;;5055720;28;20037;-66
2021/12/20 01:59:08;;;;;;;28.35;12.35;;;3.50;85.70;;;;;;5057490;28;20599;-66
2021/12/20 02:01:34;;;;;;;30.60;13.43;;;3.50;85.80;;;;;;5057210;28;20048;-66
2021/12/20 02:04:03;;;;;;;30.50;13.45;;;3.40;85.80;;;;;;5056541;28;20029;-66
2021/12/20 02:08:58;;;;;;;28.40;12.77;;;3.50;85.80;;;;;;5057447;28;20041;-66
2021/12/20 02:11:24;;;;;;;27.10;12.60;;;3.50;85.80;;;;;;5056078;28;20035;-66
2021/12/20 02:13:50;;;;;;;29.23;12.57;;;3.50;85.90;;;;;;5056437;28;20115;-66
2021/12/20 02:16:17;;;;;;;28.50;13.05;;;3.50;85.80;;;;;;5056947;28;20116;-66
2021/12/20 02:18:43;;;;;;;26.83;12.60;;;3.50;85.70;;;;;;5057199;28;20106;-66
2021/12/20 02:21:09;;;;;;;22.48;11.02;;;3.50;85.70;;;;;;5058072;28;20052;-66
2021/12/20 02:23:34;;;;;;;26.20;12.15;;;3.50;85.80;;;;;;5052019;28;20048;-66
2021/12/20 02:26:00;;;;;;;30.30;13.23;;;3.50;85.90;;;;;;5059619;28;20407;-66
2021/12/20 02:28:29;;;;;;;28.05;12.70;;;3.50;85.80;;;;;;5056228;28;20048;-66
2021/12/20 02:39:15;;;;;;;27.38;12.38;;;3.50;85.60;;;;;;5056429;28;20408;-66
2021/12/20 02:41:41;;;;;;;24.95;11.93;;;3.50;85.60;;;;;;5057488;28;20064;-66
2021/12/20 02:44:16;;;;;;;27.10;13.52;;;3.50;85.70;;;;;;5055836;28;20076;-66
2021/12/20 02:49:19;;;;;;;29.15;12.30;;;3.60;85.70;;;;;;5055678;28;20032;-66
2021/12/20 02:51:46;;;;;;;27.17;12.07;;;3.60;85.60;;;;;;5057288;28;20112;-64
2021/12/20 02:54:13;;;;;;;24.58;11.55;;;3.60;85.50;;;;;;5056334;28;20530;-66
2021/12/20 02:56:40;;;;;;;26.88;13.18;;;3.60;85.50;;;;;;5055283;28;20064;-65
2021/12/20 02:59:06;;;;;;;25.08;11.80;;;3.60;85.50;;;;;;5054494;28;20039;-66
2021/12/20 03:01:33;;;;;;;26.08;12.02;;;3.60;85.50;;;;;;5053684;28;20174;-66
2021/12/20 03:04:00;;;;;;;26.50;12.55;;;3.60;85.50;;;;;;5056732;28;20110;-67
2021/12/20 03:06:34;;;;;;;23.95;11.77;;;3.60;85.60;;;;;;5058303;28;20246;-66
2021/12/20 03:09:01;;;;;;;25.40;12.27;;;3.60;85.40;;;;;;5054068;28;20114;-65
2021/12/20 03:11:27;;;;;;;24.80;11.68;;;3.60;85.50;;;;;;5054597;28;20048;-66
2021/12/20 03:14:06;;;;;;;25.10;11.90;;;3.60;85.50;;;;;;5056827;28;20063;-67
2021/12/20 03:16:34;;;;;;;26.90;12.15;;;3.60;85.40;;;;;;5058289;28;20033;-66
2021/12/20 03:19:00;;;;;;;24.20;12.32;;;3.60;85.30;;;;;;5056745;28;20038;-66
2021/12/20 03:21:26;;;;;;;26.23;12.23;;;3.60;85.30;;;;;;5054792;28;20048;-66
2021/12/20 03:23:51;;;;;;;23.17;11.93;;;3.60;85.20;;;;;;5056203;28;20029;-66
2021/12/20 03:26:17;;;;;;;24.20;12.15;;;3.60;85.30;;;;;;5059892;28;20108;-66
2021/12/20 03:28:42;;;;;;;23.75;10.90;;;3.60;85.30;;;;;;5055675;28;20029;-66
2021/12/20 03:31:08;;;;;;;28.42;12.77;;;3.60;85.30;;;;;;5057850;28;20052;-67
2021/12/20 03:33:34;;;;;;;25.02;11.75;;;3.60;85.30;;;;;;5055894;28;20028;-66
2021/12/20 03:35:59;;;;;;;24.15;11.30;;;3.60;85.40;;;;;;5055819;28;20154;-66
2021/12/20 03:38:25;;;;;;;21.55;10.75;;;3.70;85.50;;;;;;5053685;28;21800;-65
2021/12/20 03:40:51;;;;;;;23.30;11.68;;;3.70;85.50;;;;;;5058753;28;20044;-67
2021/12/20 03:43:18;;;;;;;26.40;11.95;;;3.70;85.50;;;;;;5054676;28;20555;-66
2021/12/20 03:45:49;;;;;;;21.13;10.77;;;3.70;86.30;;;;;;5053552;28;20132;-66
2021/12/20 03:48:14;;;;;;;22.60;10.68;;;3.70;85.30;;;;;;5056386;28;20059;-66
2021/12/20 03:50:40;;;;;;;23.70;11.40;;;3.70;85.20;;;;;;5054000;28;20052;-66
2021/12/20 03:53:06;;;;;;;24.35;11.73;;;3.70;85.10;;;;;;5054225;28;20075;-67
2021/12/20 03:55:32;;;;;;;21.63;10.50;;;3.80;85.20;;;;;;5056233;28;20147;-66
2021/12/20 03:57:58;;;;;;;22.30;10.95;;;3.70;85.10;;;;;;5054028;28;20033;-67
2021/12/20 04:00:23;;;;;;;21.48;11.40;;;3.70;85.00;;;;;;5053181;28;20033;-66
2021/12/20 04:02:49;;;;;;;27.15;12.60;;;3.80;85.10;;;;;;5056125;28;20549;-66
2021/12/20 04:05:16;;;;;;;27.23;13.18;;;3.70;84.90;;;;;;5058139;28;20036;-66
2021/12/20 04:07:42;;;;;;;26.05;12.60;;;3.80;85.00;;;;;;5055476;28;20029;-66
2021/12/20 04:10:08;;;;;;;26.73;12.55;;;3.80;86.00;;;;;;5052723;28;20427;-66
2021/12/20 04:12:34;;;;;;;27.13;12.48;;;3.70;85.10;;;;;;5051226;28;20033;-66
2021/12/20 04:15:00;;;;;;;26.58;12.38;;;3.70;85.10;;;;;;5057405;28;20794;-66
2021/12/20 04:17:25;;;;;;;27.58;12.82;;;3.70;85.10;;;;;;5050444;28;20082;-66
2021/12/20 04:19:51;;;;;;;25.95;13.00;;;3.70;85.20;;;;;;5055980;28;20094;-66
2021/12/20 04:22:19;;;;;;;31.25;13.90;;;3.70;85.10;;;;;;5056535;28;20083;-66
2021/12/20 04:24:45;;;;;;;26.65;13.15;;;3.80;85.20;;;;;;5052889;28;20043;-66
2021/12/20 04:27:12;;;;;;;26.35;12.35;;;3.70;85.10;;;;;;5052230;28;20082;-66
2021/12/20 04:29:37;;;;;;;25.08;12.80;;;3.70;85.10;;;;;;5054015;28;20043;-67
2021/12/20 04:32:03;;;;;;;25.08;12.15;;;3.80;85.30;;;;;;5050818;28;20029;-65
2021/12/20 04:34:30;;;;;;;22.73;11.45;;;3.80;85.30;;;;;;5056718;28;20461;-66
2021/12/20 04:36:56;;;;;;;23.73;12.25;;;3.80;85.30;;;;;;5054207;28;20075;-66
2021/12/20 04:39:26;;;;;;;20.92;11.10;;;3.80;85.10;;;;;;5054031;28;20025;-66
2021/12/20 04:41:52;;;;;;;24.48;11.57;;;3.80;85.10;;;;;;5053315;28;20044;-67
2021/12/20 04:44:17;;;;;;;22.98;11.68;;;3.90;85.00;;;;;;5054029;28;22644;-67
2021/12/20 04:46:43;;;;;;;22.88;11.73;;;3.80;85.80;;;;;;5053117;28;20051;-66
2021/12/20 04:49:08;;;;;;;26.00;12.82;;;3.90;85.10;;;;;;5054014;28;20049;-66
2021/12/20 04:51:34;;;;;;;22.80;11.23;;;3.90;85.10;;;;;;5054415;28;20036;-66
2021/12/20 04:54:00;;;;;;;23.52;11.85;;;3.90;84.90;;;;;;5054130;28;20044;-66
2021/12/20 04:56:25;;;;;;;23.52;12.18;;;3.80;84.80;;;;;;5053474;28;20056;-64
2021/12/20 04:58:51;;;;;;;24.83;11.73;;;3.90;84.70;;;;;;5052217;28;20037;-66
2021/12/20 05:01:17;;;;;;;25.58;12.52;;;3.80;84.70;;;;;;5054751;28;20043;-66
2021/12/20 05:03:42;;;;;;;24.27;11.98;;;3.80;84.70;;;;;;5054012;28;20043;-66
2021/12/20 05:06:08;;;;;;;24.42;12.50;;;3.80;84.70;;;;;;5054956;28;20032;-66
2021/12/20 05:08:46;;;;;;;27.90;12.70;;;3.80;84.70;;;;;;5052408;28;20033;-67
2021/12/20 05:11:12;;;;;;;24.52;12.20;;;3.80;84.80;;;;;;5050708;28;20051;-66
2021/12/20 05:13:38;;;;;;;23.20;11.68;;;3.80;84.70;;;;;;5054239;28;20527;-66
2021/12/20 05:16:04;;;;;;;25.08;12.00;;;3.80;84.80;;;;;;5054647;28;20056;-66
2021/12/20 05:18:30;;;;;;;24.45;12.60;;;3.80;84.80;;;;;;5050229;28;20032;-66
2021/12/20 05:20:55;;;;;;;24.75;11.48;;;3.80;84.90;;;;;;5059266;28;20470;-66
2021/12/20 05:23:21;;;;;;;124.22;51.28;;;3.80;84.90;;;;;;5052492;28;20038;-67
2021/12/20 05:25:47;;;;;;;32.08;16.20;;;3.70;84.90;;;;;;5056532;28;20029;-63
2021/12/20 05:28:13;;;;;;;63.45;33.70;;;3.80;84.90;;;;;;5052005;28;20048;-66
2021/12/20 05:30:39;;;;;;;33.88;18.95;;;3.80;85.00;;;;;;5055706;28;20036;-66
2021/12/20 05:33:05;;;;;;;31.20;17.17;;;3.80;85.00;;;;;;5053066;28;21961;-66
2021/12/20 05:35:31;;;;;;;26.23;14.10;;;3.70;85.00;;;;;;5054414;28;20048;-66
2021/12/20 05:37:58;;;;;;;28.15;13.77;;;3.70;84.90;;;;;;5053280;28;20503;-66
2021/12/20 05:40:24;;;;;;;23.73;12.32;;;3.70;85.00;;;;;;5053718;28;20033;-66
2021/12/20 05:42:49;;;;;;;23.77;11.93;;;3.70;84.90;;;;;;5052772;28;20048;-66
2021/12/20 05:45:16;;;;;;;26.65;12.55;;;3.70;84.90;;;;;;5053797;28;20159;-66
2021/12/20 05:47:42;;;;;;;25.88;13.20;;;3.80;84.90;;;;;;5054868;28;20032;-66
2021/12/20 05:50:10;;;;;;;26.80;12.05;;;3.70;84.80;;;;;;5050323;28;20036;-66
2021/12/20 05:52:36;;;;;;;23.67;12.18;;;3.70;84.80;;;;;;5052997;28;20040;-66
2021/12/20 05:55:03;;;;;;;27.25;14.68;;;3.70;85.00;;;;;;5053089;28;20132;-66
2021/12/20 05:57:29;;;;;;;29.40;15.80;;;3.70;85.10;;;;;;5054297;28;20043;-66
2021/12/20 05:59:55;;;;;;;26.90;14.27;;;3.70;85.10;;;;;;5053087;28;20064;-66
2021/12/20 06:02:21;;;;;;;24.13;12.20;;;3.70;85.20;;;;;;5054487;28;20488;-66
2021/12/20 06:04:50;;;;;;;28.52;12.75;;;3.80;85.20;;;;;;5053004;28;20040;-66
2021/12/20 06:07:17;;;;;;;22.73;12.05;;;3.80;85.30;;;;;;5051504;28;20123;-64
2021/12/20 06:09:43;;;;;;;25.33;12.68;;;3.80;85.20;;;;;;5053372;28;20036;-66
2021/12/20 06:12:09;;;;;;;27.52;15.15;;;3.80;85.20;;;;;;5047936;28;20059;-66
2021/12/20 06:14:35;;;;;;;46.17;21.88;;;3.80;85.20;;;;;;5055648;28;20396;-66
2021/12/20 06:17:01;;;;;;;47.47;21.65;;;3.80;85.10;;;;;;5055515;28;20025;-66
2021/12/20 06:19:27;;;;;;;43.13;19.33;;;3.80;84.90;;;;;;5059242;28;20128;-66
2021/12/20 06:21:53;;;;;;;31.45;15.25;;;3.90;84.90;;;;;;5059170;28;20637;-66
2021/12/20 06:24:19;;;;;;;32.17;15.23;;;3.90;84.90;;;;;;5058886;28;20024;-66
2021/12/20 06:26:45;;;;;;;29.00;14.90;;;3.80;84.80;;;;;;5058733;28;20410;-66
2021/12/20 06:29:11;;;;;;;29.77;15.13;;;3.80;84.70;;;;;;5059548;28;20060;-65
2021/12/20 06:31:36;;;;;;;24.63;13.40;;;3.80;85.70;;;;;;5058815;28;21641;-66
2021/12/20 06:34:02;;;;;;;27.23;13.77;;;3.80;84.70;;;;;;5055169;28;20036;-66
2021/12/20 06:36:29;;;;;;;24.83;13.00;;;3.80;84.70;;;;;;5052938;28;20028;-66
2021/12/20 06:38:56;;;;;;;26.00;13.15;;;3.80;84.80;;;;;;5058752;28;20408;-66
2021/12/20 06:41:23;;;;;;;25.60;13.05;;;3.80;84.80;;;;;;5058256;28;20078;-66
2021/12/20 06:43:49;;;;;;;26.00;12.60;;;3.80;84.90;;;;;;5056115;28;20159;-66
2021/12/20 06:46:16;;;;;;;27.70;12.85;;;3.80;84.90;;;;;;5053132;28;20071;-67
2021/12/20 06:48:42;;;;;;;24.10;12.93;;;3.70;84.90;;;;;;5054737;28;20028;-66
2021/12/20 06:51:08;;;;;;;24.08;12.45;;;3.70;84.80;;;;;;5055094;28;20029;-67
2021/12/20 06:53:33;;;;;;;24.48;12.38;;;3.70;84.80;;;;;;5055255;28;20039;-67
2021/12/20 06:55:59;;;;;;;25.50;13.18;;;3.70;84.80;;;;;;5058082;28;20033;-67
2021/12/20 06:58:24;;;;;;;28.48;13.40;;;3.70;84.90;;;;;;5052069;28;20631;-65
2021/12/20 07:00:54;;;;;;;27.63;13.43;;;3.70;84.90;;;;;;5052866;28;20525;-65
2021/12/20 07:03:20;;;;;;;30.65;15.27;;;3.70;85.00;;;;;;5053366;28;20127;-66
2021/12/20 07:05:46;;;;;;;30.17;14.57;;;3.70;85.10;;;;;;5054039;28;20579;-66
2021/12/20 07:08:12;;;;;;;26.75;14.35;;;3.70;85.90;;;;;;5052612;28;20045;-66
2021/12/20 07:10:38;;;;;;;30.52;14.23;;;3.70;84.90;;;;;;5051431;28;20779;-67
2021/12/20 07:13:04;;;;;;;26.85;13.88;;;3.60;84.70;;;;;;5054504;28;20033;-66
2021/12/20 07:15:31;;;;;;;29.17;14.60;;;3.70;84.80;;;;;;5053953;28;20036;-66
2021/12/20 07:17:57;;;;;;;26.60;13.70;;;3.60;84.80;;;;;;5051970;28;20033;-65
2021/12/20 07:20:23;;;;;;;27.40;13.20;;;3.70;84.90;;;;;;5054718;28;21251;-66
2021/12/20 07:22:49;;;;;;;24.83;13.25;;;3.70;84.80;;;;;;5052954;28;20403;-66
2021/12/20 07:25:15;;;;;;;25.00;13.15;;;3.60;84.80;;;;;;5054645;28;20037;-66
2021/12/20 07:27:40;;;;;;;28.77;14.27;;;3.60;84.80;;;;;;5056917;28;20044;-66
2021/12/20 07:30:07;;;;;;;30.13;15.95;;;3.60;84.90;;;;;;5054094;28;20045;-66
2021/12/20 07:32:33;;;;;;;34.45;16.92;;;3.70;85.00;;;;;;5042537;28;20504;-66
2021/12/20 07:34:59;;;;;;;26.42;13.70;;;3.60;85.00;;;;;;5037315;28;20151;-66
2021/12/20 07:37:27;;;;;;;29.60;15.75;;;3.60;85.00;;;;;;5050561;28;20132;-66
2021/12/20 07:39:53;;;;;;;31.23;15.38;;;3.60;85.00;;;;;;5051949;28;20129;-66
2021/12/20 07:42:19;;;;;;;34.83;17.50;;;3.60;84.90;;;;;;5052019;28;20029;-66
2021/12/20 07:44:45;;;;;;;43.97;21.98;;;3.70;85.00;;;;;;5052996;28;20040;-67
2021/12/20 07:47:11;;;;;;;48.15;24.63;;;3.70;85.00;;;;;;5052045;28;20036;-67
2021/12/20 07:49:37;;;;;;;32.28;15.07;;;3.70;85.00;;;;;;5051581;28;20040;-65
2021/12/20 07:52:04;;;;;;;37.35;18.75;;;3.70;85.00;;;;;;5054113;28;20827;-64
2021/12/20 07:54:30;;;;;;;52.75;26.52;;;3.70;84.90;;;;;;5054529;28;20029;-67
2021/12/20 07:56:56;;;;;;;28.92;15.30;;;3.70;84.90;;;;;;5055335;28;20105;-67
2021/12/20 07:59:22;;;;;;;30.17;14.30;;;3.60;84.90;;;;;;5056380;28;20090;-66
2021/12/20 08:01:49;;;;;;;40.72;19.55;;;3.60;84.90;;;;;;5051987;28;20059;-66
2021/12/20 08:04:15;;;;;;;33.08;17.27;;;3.70;85.00;;;;;;5051948;28;20550;-67
2021/12/20 08:06:43;;;;;;;30.08;14.98;;;3.70;85.00;;;;;;5054865;28;20052;-66
2021/12/20 08:09:10;;;;;;;30.02;15.07;;;3.70;85.00;;;;;;5056404;28;20172;-67
2021/12/20 08:11:36;;;;;;;30.85;15.13;;;3.70;85.00;;;;;;5055869;28;20032;-66
2021/12/20 08:14:02;;;;;;;29.15;15.05;;;3.70;85.00;;;;;;5052508;28;20599;-66
2021/12/20 08:16:28;;;;;;;28.20;14.07;;;3.70;85.10;;;;;;5054597;28;20041;-66
2021/12/20 08:18:53;;;;;;;30.98;15.02;;;3.70;84.90;;;;;;5054784;28;20033;-66
2021/12/20 08:21:21;;;;;;;25.38;13.48;;;3.70;84.90;;;;;;5055585;28;20672;-65
2021/12/20 08:23:46;;;;;;;27.40;14.38;;;3.70;84.90;;;;;;5053043;28;20037;-66
2021/12/20 08:26:12;;;;;;;29.33;14.05;;;3.70;84.90;;;;;;5054623;28;20037;-65
2021/12/20 08:28:38;;;;;;;23.88;13.02;;;3.70;84.90;;;;;;5052733;28;20047;-66
2021/12/20 08:31:05;;;;;;;29.80;16.95;;;3.70;84.90;;;;;;5051258;28;20035;-67
2021/12/20 08:33:32;;;;;;;25.98;13.82;;;3.70;85.00;;;;;;5054842;28;20037;-67
2021/12/20 08:52:48;;;;;;;34.70;16.23;;;3.80;85.10;;;;;;5055422;28;20087;-66
2021/12/20 08:55:14;;;;;;;28.95;14.48;;;3.80;85.30;;;;;;5054971;28;20415;-67
2021/12/20 08:57:41;;;;;;;30.25;14.93;;;3.90;85.30;;;;;;5044344;28;20036;-66
2021/12/20 09:00:10;;;;;;;26.52;13.88;;;3.90;85.30;;;;;;5053727;28;20049;-67
2021/12/20 09:02:36;;;;;;;29.15;13.93;;;3.90;85.20;;;;;;5052471;28;20033;-67
2021/12/20 09:05:02;;;;;;;30.90;14.20;;;3.90;85.20;;;;;;5047006;28;20040;-67
2021/12/20 09:07:28;;;;;;;27.85;13.77;;;4.00;85.20;;;;;;5053792;28;20032;-67
2021/12/20 09:09:54;;;;;;;27.88;14.07;;;4.00;85.10;;;;;;5053565;28;20033;-67
2021/12/20 09:12:20;;;;;;;29.38;15.20;;;4.10;85.10;;;;;;5051156;28;20048;-68
2021/12/20 09:14:47;;;;;;;27.73;14.07;;;4.10;85.00;;;;;;5047097;28;20557;-67
2021/12/20 09:17:13;;;;;;;30.60;15.25;;;4.10;84.90;;;;;;5048061;28;20132;-67
2021/12/20 09:19:39;;;;;;;28.30;14.05;;;4.20;84.90;;;;;;5054439;28;20168;-67
2021/12/20 09:22:06;;;;;;;29.48;14.57;;;4.20;84.80;;;;;;5054310;28;20036;-67
2021/12/20 09:24:33;;;;;;;26.10;14.20;;;4.20;84.70;;;;;;5054200;28;20029;-68
2021/12/20 09:27:00;;;;;;;28.80;14.73;;;4.20;84.70;;;;;;5048044;28;20087;-66
2021/12/20 09:29:26;;;;;;;31.48;14.93;;;4.20;84.70;;;;;;5049832;28;20078;-66
2021/12/20 09:31:51;;;;;;;30.60;14.82;;;4.10;84.80;;;;;;5052282;28;20494;-67
2021/12/20 09:34:17;;;;;;;27.98;14.18;;;4.20;84.90;;;;;;5051115;28;20128;-67
2021/12/20 09:36:43;;;;;;;31.90;15.82;;;4.20;85.00;;;;;;5052563;28;20033;-67
2021/12/20 09:39:11;;;;;;;29.95;15.68;;;4.20;85.00;;;;;;5057138;28;20056;-67
2021/12/20 09:44:10;;;;;;;27.63;13.90;;;4.30;84.90;;;;;;5054508;28;20037;-67
2021/12/20 09:46:38;;;;;;;28.42;14.20;;;4.30;84.70;;;;;;5055181;28;20029;-66
2021/12/20 09:49:06;;;;;;;30.10;15.25;;;4.30;84.90;;;;;;5055589;28;20037;-67
2021/12/20 09:51:32;;;;;;;29.77;14.52;;;4.40;85.10;;;;;;5060957;28;20055;-67
2021/12/20 09:53:58;;;;;;;25.50;13.50;;;4.40;85.10;;;;;;5059960;28;20055;-67
2021/12/20 09:56:26;;;;;;;27.80;13.93;;;4.40;85.10;;;;;;5060593;28;20033;-67
2021/12/20 09:58:53;;;;;;;33.10;15.77;;;4.50;85.10;;;;;;5060500;28;20037;-67
2021/12/20 10:01:21;;;;;;;30.48;15.43;;;4.50;85.10;;;;;;5059878;28;20043;-67
2021/12/20 10:03:48;;;;;;;29.33;14.65;;;4.60;85.10;;;;;;5059600;28;20120;-67
2021/12/20 10:06:14;;;;;;;29.00;14.35;;;4.60;84.90;;;;;;5061505;28;20045;-67
2021/12/20 10:08:49;;;;;;;28.58;14.88;;;4.60;84.90;;;;;;5057775;28;20025;-67
2021/12/20 10:11:23;;;;;;;30.35;14.77;;;4.70;84.90;;;;;;5061189;28;20522;-66
2021/12/20 10:13:49;;;;;;;26.17;14.27;;;4.70;84.70;;;;;;5059076;28;20036;-67
2021/12/20 10:16:20;;;;;;;28.15;14.45;;;4.70;84.60;;;;;;5059092;28;20051;-67
2021/12/20 10:18:48;;;;;;;26.90;13.77;;;4.70;84.40;;;;;;5057632;28;20518;-66
2021/12/20 10:21:15;;;;;;;28.33;13.93;;;4.80;84.20;;;;;;5060943;28;20052;-67
2021/12/20 10:23:46;;;;;;;25.30;13.98;;;4.80;84.20;;;;;;5060726;28;20107;-67
2021/12/20 10:26:19;;;;;;;27.02;14.90;;;4.80;84.00;;;;;;5060305;28;20097;-66
2021/12/20 10:28:51;;;;;;;26.45;14.32;;;4.80;84.00;;;;;;5059902;28;20396;-67
2021/12/20 10:31:19;;;;;;;26.02;14.13;;;4.80;83.90;;;;;;5059485;28;20518;-67
2021/12/20 10:34:00;;;;;;;25.55;13.52;;;4.80;83.70;;;;;;5059061;28;20112;-67
2021/12/20 10:36:26;;;;;;;31.45;15.65;;;4.80;83.60;;;;;;5057999;28;20492;-67
2021/12/20 10:38:57;;;;;;;27.70;13.95;;;4.80;84.20;;;;;;5059577;28;20051;-67
2021/12/20 10:41:36;;;;;;;27.88;14.32;;;4.80;84.30;;;;;;5059811;28;20063;-68
2021/12/20 10:44:19;;;;;;;25.27;13.48;;;4.80;84.20;;;;;;5056211;28;20040;-67
2021/12/20 10:46:51;;;;;;;32.28;14.88;;;4.80;83.90;;;;;;5057345;28;20466;-67
2021/12/20 10:49:18;;;;;;;28.27;13.95;;;4.90;84.00;;;;;;5058886;28;20728;-67
2021/12/20 10:51:51;;;;;;;25.85;14.13;;;4.80;83.70;;;;;;5060336;28;20087;-67
2021/12/20 10:54:21;;;;;;;27.80;13.90;;;4.90;84.00;;;;;;5059851;28;20040;-67
2021/12/20 10:56:57;;;;;;;28.17;13.90;;;4.90;84.30;;;;;;5057331;28;20040;-68
2021/12/20 10:59:25;;;;;;;30.63;15.30;;;4.90;84.40;;;;;;5058695;28;20037;-66
2021/12/20 11:04:47;;;;;;;27.20;14.20;;;5.00;84.20;;;;;;5056169;28;22305;-67
2021/12/20 11:09:54;;;;;;;27.55;13.82;;;5.00;84.10;;;;;;5054777;28;20040;-67
2021/12/20 11:12:26;;;;;;;27.53;13.90;;;5.00;84.10;;;;;;5059378;28;20094;-67
2021/12/20 11:14:55;;;;;;;28.05;14.45;;;5.00;84.20;;;;;;5059537;28;20784;-66
2021/12/20 11:17:22;;;;;;;29.73;15.30;;;5.00;84.40;;;;;;5054820;28;20049;-64
2021/12/20 11:19:50;;;;;;;28.92;14.93;;;5.10;84.40;;;;;;5058649;28;20032;-66
2021/12/20 11:22:24;;;;;;;28.80;14.40;;;5.10;84.50;;;;;;5058728;28;20029;-67
2021/12/20 11:24:51;;;;;;;33.63;19.33;;;5.20;84.20;;;;;;5057673;28;20029;-67
2021/12/20 11:27:23;;;;;;;30.00;14.95;;;5.20;84.10;;;;;;5055880;28;20029;-67
2021/12/20 11:29:52;;;;;;;29.88;15.05;;;5.20;83.90;;;;;;5054039;28;20515;-67
2021/12/20 11:32:20;;;;;;;29.15;14.93;;;5.20;83.70;;;;;;5058169;28;20040;-68
2021/12/20 11:34:46;;;;;;;27.08;14.23;;;5.20;83.50;;;;;;5054856;28;20539;-68
2021/12/20 11:37:15;;;;;;;26.83;14.52;;;5.20;83.50;;;;;;5057686;28;20033;-68
2021/12/20 11:39:42;;;;;;;28.25;15.02;;;5.20;83.70;;;;;;5056308;28;20118;-67
2021/12/20 11:42:09;;;;;;;27.38;14.05;;;5.20;83.90;;;;;;5057110;28;20060;-67
2021/12/20 11:44:37;;;;;;;28.13;13.93;;;5.20;84.00;;;;;;5055960;28;20047;-67
2021/12/20 11:47:20;;;;;;;27.10;14.43;;;5.20;85.00;;;;;;5057761;28;20041;-67
2021/12/20 11:50:00;;;;;;;28.70;14.52;;;5.30;84.90;;;;;;5058488;28;20115;-67
2021/12/20 11:52:31;;;;;;;27.15;14.10;;;5.30;84.00;;;;;;5053800;28;20033;-66
2021/12/20 11:54:57;;;;;;;28.52;15.15;;;5.30;83.80;;;;;;5057781;28;20044;-67
2021/12/20 11:57:33;;;;;;;28.52;14.45;;;5.30;83.90;;;;;;5053493;28;20377;-67
2021/12/20 12:00:04;;;;;;;26.60;14.18;;;5.30;83.70;;;;;;5055303;28;20042;-66
2021/12/20 12:02:38;;;;;;;27.35;14.48;;;5.40;84.00;;;;;;5056512;28;20025;-64
2021/12/20 12:05:06;;;;;;;27.45;13.88;;;5.30;84.00;;;;;;5057533;28;20025;-66
2021/12/20 12:07:35;;;;;;;25.98;13.93;;;5.40;84.20;;;;;;5053969;28;20218;-67
2021/12/20 12:10:04;;;;;;;25.33;13.52;;;5.40;84.10;;;;;;5057500;28;20404;-68
2021/12/20 12:12:30;;;;;;;30.75;14.48;;;5.40;84.00;;;;;;5056723;28;20026;-67
2021/12/20 12:15:08;;;;;;;25.70;13.23;;;5.50;84.00;;;;;;5058241;28;20139;-67
2021/12/20 12:18:04;;;;;;;28.95;13.20;;;5.50;84.00;;;;;;5055321;28;20407;-67
2021/12/20 12:20:50;;;;;;;24.52;12.77;;;5.50;83.70;;;;;;5053076;28;20379;-67
2021/12/20 12:23:25;;;;;;;25.88;12.88;;;5.50;83.80;;;;;;5057952;28;20033;-67
2021/12/20 12:25:59;;;;;;;28.35;13.25;;;5.60;83.80;;;;;;5057173;28;20024;-68
2021/12/20 12:28:27;;;;;;;25.40;12.45;;;5.60;83.70;;;;;;5056399;28;20033;-68
2021/12/20 12:31:05;;;;;;;27.60;13.43;;;5.60;83.70;;;;;;5058405;28;20029;-67
2021/12/20 12:33:36;;;;;;;24.67;12.75;;;5.60;83.40;;;;;;5056843;28;20048;-65
2021/12/20 12:36:05;;;;;;;28.00;13.25;;;5.60;83.20;;;;;;5056979;28;20032;-67
2021/12/20 12:38:48;;;;;;;26.45;12.98;;;5.60;83.30;;;;;;5057117;28;20053;-67
2021/12/20 12:41:22;;;;;;;25.05;12.27;;;5.60;83.30;;;;;;5057459;28;20443;-67
2021/12/20 12:43:49;;;;;;;25.52;12.75;;;5.60;83.30;;;;;;5057932;28;20049;-67
2021/12/20 12:46:14;;;;;;;22.55;11.85;;;5.60;83.20;;;;;;5053869;28;20500;-66
2021/12/20 12:48:49;;;;;;;25.52;12.25;;;5.60;83.30;;;;;;5056307;28;20426;-67
2021/12/20 12:51:20;;;;;;;23.85;12.73;;;5.70;83.50;;;;;;5055500;28;20038;-67
2021/12/20 12:53:48;;;;;;;22.80;11.45;;;5.70;83.50;;;;;;5054244;28;20040;-68
2021/12/20 12:56:24;;;;;;;23.02;10.77;;;5.70;83.40;;;;;;5054728;28;20120;-67
2021/12/20 12:59:11;;;;;;;24.15;11.15;;;5.70;83.20;;;;;;5054140;28;20036;-68
2021/12/20 13:01:39;;;;;;;23.17;11.77;;;5.70;83.20;;;;;;5055833;28;20067;-67
2021/12/20 13:04:05;;;;;;;23.80;11.60;;;5.80;83.40;;;;;;5054466;28;20036;-67
2021/12/20 13:06:31;;;;;;;20.27;11.13;;;5.80;83.30;;;;;;5055412;28;20035;-67
2021/12/20 13:08:59;;;;;;;21.60;11.73;;;5.80;83.30;;;;;;5055883;28;20408;-67
2021/12/20 13:11:26;;;;;;;21.63;11.40;;;5.80;83.30;;;;;;5056585;28;20050;-67
2021/12/20 13:14:14;;;;;;;18.92;10.27;;;5.80;83.30;;;;;;5056601;28;20032;-67
2021/12/20 13:16:57;;;;;;;20.17;10.23;;;5.90;82.30;;;;;;5055233;28;20037;-68
2021/12/20 13:19:32;;;;;;;18.27;10.05;;;5.80;81.90;;;;;;5058406;28;20508;-67